This is the latest recevied weather packets stored in our database for station/object K0CPM-2. If no packets are shown the sender has not sent any weather packets the latest 10 day(s).
| Time | Temp. | Humidity | Pressure | Rain* | Wind** | Luminosity | Snow |
|---|---|---|---|---|---|---|---|
| 1778292908 | 20.56° C | 98% | 1008.3 hPa | 0 mm | - | - | - |
| 1778292007 | 20.56° C | 98% | 1008.7 hPa | 0 mm | - | - | - |
| 1778291107 | 20.56° C | 98% | 1008.4 hPa | 0 mm | - | - | - |
| 1778290207 | 20.56° C | 97% | 1008.2 hPa | 0 mm | - | - | - |
| 1778289306 | 20.56° C | 97% | 1008.5 hPa | 0 mm | - | - | - |
| 1778288412 | 20.56° C | 97% | 1008.4 hPa | 0 mm | - | - | - |
| 1778287503 | 20.56° C | 97% | 1008.6 hPa | 0 mm | - | - | - |
| 1778286602 | 20.56° C | 97% | 1008.7 hPa | 0 mm | - | - | - |
| 1778285767 | 20.56° C | 98% | 1008.8 hPa | 0 mm | - | - | - |
| 1778284873 | 20.56° C | 97% | 1009.2 hPa | 0 mm | - | - | - |
| 1778283959 | 20.56° C | 97% | 1009.3 hPa | 0 mm | - | - | - |
| 1778283059 | 20.56° C | 97% | 1009.1 hPa | 0.51 mm | - | - | - |
| 1778282158 | 20.56° C | 97% | 1009 hPa | 0.51 mm | - | - | - |
| 1778281257 | 20° C | 97% | 1009.1 hPa | 0.51 mm | - | - | - |
| 1778280417 | 20° C | 97% | 1009.2 hPa | 0.76 mm | - | - | - |
| 1778279456 | 20° C | 97% | 1009.7 hPa | 0.25 mm | - | - | - |
| 1778278555 | 20° C | 97% | 1009.1 hPa | 0.51 mm | - | - | - |
| 1778277654 | 20° C | 96% | 1009.3 hPa | 2.79 mm | - | - | - |
| 1778276754 | 20° C | 96% | 1010.1 hPa | 7.11 mm | - | - | - |
| 1778275851 | 20° C | 96% | 1010.4 hPa | 17.27 mm | - | - | - |
| 1778274951 | 20° C | 95% | 1010.6 hPa | 17.53 mm | - | - | - |
| 1778274050 | 20° C | 94% | 1010.8 hPa | 14.48 mm | - | - | - |
| 1778273147 | 20.56° C | 93% | 1010.7 hPa | 10.41 mm | - | - | - |
| 1778272250 | 21.11° C | 91% | 1009.9 hPa | 0.25 mm | - | - | - |
| 1778271343 | 21.11° C | 88% | 1010 hPa | 0 mm | - | - | - |
* Rain latest hour (hover to see other rain measurements)
** Current wind speed in m/s (hover to see current wind gust speed)